sensor_id;sensor_type;location;lat;lon;timestamp;temperature;humidity
16392;DHT22;8305;-33.882;151.134;2022-07-21T00:01:35;12.40;99.90
16392;DHT22;8305;-33.882;151.134;2022-07-21T00:04:06;12.40;99.90
16392;DHT22;8305;-33.882;151.134;2022-07-21T00:06:38;12.40;99.90
16392;DHT22;8305;-33.882;151.134;2022-07-21T00:09:09;12.40;99.90
16392;DHT22;8305;-33.882;151.134;2022-07-21T00:11:40;12.40;99.90
16392;DHT22;8305;-33.882;151.134;2022-07-21T00:14:11;12.50;99.90
16392;DHT22;8305;-33.882;151.134;2022-07-21T00:16:43;12.70;99.90
16392;DHT22;8305;-33.882;151.134;2022-07-21T00:19:14;12.70;99.90
16392;DHT22;8305;-33.882;151.134;2022-07-21T00:21:46;12.90;99.90
16392;DHT22;8305;-33.882;151.134;2022-07-21T00:24:17;13.00;99.90
16392;DHT22;8305;-33.882;151.134;2022-07-21T00:26:48;13.10;99.90
16392;DHT22;8305;-33.882;151.134;2022-07-21T00:29:18;13.10;99.90
16392;DHT22;8305;-33.882;151.134;2022-07-21T00:31:49;13.00;99.90
16392;DHT22;8305;-33.882;151.134;2022-07-21T00:34:20;13.10;99.90
16392;DHT22;8305;-33.882;151.134;2022-07-21T00:36:52;13.10;99.90
16392;DHT22;8305;-33.882;151.134;2022-07-21T00:39:23;13.20;99.90
16392;DHT22;8305;-33.882;151.134;2022-07-21T00:41:54;13.40;99.90
16392;DHT22;8305;-33.882;151.134;2022-07-21T00:44:25;13.40;99.90
16392;DHT22;8305;-33.882;151.134;2022-07-21T00:46:57;13.50;99.90
16392;DHT22;8305;-33.882;151.134;2022-07-21T00:49:28;13.60;99.90
16392;DHT22;8305;-33.882;151.134;2022-07-21T00:52:00;13.70;99.90
16392;DHT22;8305;-33.882;151.134;2022-07-21T00:54:31;13.80;99.90
16392;DHT22;8305;-33.882;151.134;2022-07-21T00:57:02;13.90;99.90
16392;DHT22;8305;-33.882;151.134;2022-07-21T00:59:33;14.10;99.90
16392;DHT22;8305;-33.882;151.134;2022-07-21T01:02:04;14.20;99.90
16392;DHT22;8305;-33.882;151.134;2022-07-21T01:04:35;14.30;99.90
16392;DHT22;8305;-33.882;151.134;2022-07-21T01:07:08;14.30;99.90
16392;DHT22;8305;-33.882;151.134;2022-07-21T01:09:39;14.30;99.90
16392;DHT22;8305;-33.882;151.134;2022-07-21T01:12:10;14.30;99.90
16392;DHT22;8305;-33.882;151.134;2022-07-21T01:14:41;14.30;99.90
16392;DHT22;8305;-33.882;151.134;2022-07-21T01:17:12;14.30;99.90
16392;DHT22;8305;-33.882;151.134;2022-07-21T01:19:42;14.30;99.90
16392;DHT22;8305;-33.882;151.134;2022-07-21T01:22:15;14.30;99.90
16392;DHT22;8305;-33.882;151.134;2022-07-21T01:24:46;14.40;99.90
16392;DHT22;8305;-33.882;151.134;2022-07-21T01:27:17;14.60;99.90
16392;DHT22;8305;-33.882;151.134;2022-07-21T01:29:47;14.70;99.90
16392;DHT22;8305;-33.882;151.134;2022-07-21T01:32:18;14.70;99.90
16392;DHT22;8305;-33.882;151.134;2022-07-21T01:34:49;14.80;99.90
16392;DHT22;8305;-33.882;151.134;2022-07-21T01:37:27;14.70;99.90
16392;DHT22;8305;-33.882;151.134;2022-07-21T01:39:58;14.80;99.90
16392;DHT22;8305;-33.882;151.134;2022-07-21T01:42:45;14.90;99.90
16392;DHT22;8305;-33.882;151.134;2022-07-21T01:45:16;14.90;99.90
16392;DHT22;8305;-33.882;151.134;2022-07-21T01:47:47;14.90;99.90
16392;DHT22;8305;-33.882;151.134;2022-07-21T01:50:18;14.90;99.90
16392;DHT22;8305;-33.882;151.134;2022-07-21T01:52:56;14.90;99.90
16392;DHT22;8305;-33.882;151.134;2022-07-21T01:55:28;14.80;99.90
16392;DHT22;8305;-33.882;151.134;2022-07-21T01:58:02;14.90;99.90
16392;DHT22;8305;-33.882;151.134;2022-07-21T02:00:33;15.00;99.90
16392;DHT22;8305;-33.882;151.134;2022-07-21T02:03:03;15.20;99.90
16392;DHT22;8305;-33.882;151.134;2022-07-21T02:05:34;15.40;99.90
16392;DHT22;8305;-33.882;151.134;2022-07-21T02:08:07;15.60;99.90
16392;DHT22;8305;-33.882;151.134;2022-07-21T02:10:38;15.90;99.90
16392;DHT22;8305;-33.882;151.134;2022-07-21T02:13:08;15.90;99.90
16392;DHT22;8305;-33.882;151.134;2022-07-21T02:15:39;15.80;99.90
16392;DHT22;8305;-33.882;151.134;2022-07-21T02:18:10;15.70;99.90
16392;DHT22;8305;-33.882;151.134;2022-07-21T02:20:41;15.20;99.90
16392;DHT22;8305;-33.882;151.134;2022-07-21T02:23:14;14.90;99.90
16392;DHT22;8305;-33.882;151.134;2022-07-21T02:25:46;14.70;99.90
16392;DHT22;8305;-33.882;151.134;2022-07-21T02:28:16;14.50;99.90
16392;DHT22;8305;-33.882;151.134;2022-07-21T02:30:47;14.40;99.90
16392;DHT22;8305;-33.882;151.134;2022-07-21T02:33:18;14.40;99.90
16392;DHT22;8305;-33.882;151.134;2022-07-21T02:35:49;14.30;99.90
16392;DHT22;8305;-33.882;151.134;2022-07-21T02:38:22;14.30;99.90
16392;DHT22;8305;-33.882;151.134;2022-07-21T02:40:52;14.30;99.90
16392;DHT22;8305;-33.882;151.134;2022-07-21T02:43:23;14.20;99.90
16392;DHT22;8305;-33.882;151.134;2022-07-21T02:45:54;14.20;99.90
16392;DHT22;8305;-33.882;151.134;2022-07-21T02:48:25;14.20;99.90
16392;DHT22;8305;-33.882;151.134;2022-07-21T02:50:55;14.40;99.90
16392;DHT22;8305;-33.882;151.134;2022-07-21T02:53:28;14.40;99.90
16392;DHT22;8305;-33.882;151.134;2022-07-21T02:55:58;14.50;99.90
16392;DHT22;8305;-33.882;151.134;2022-07-21T02:58:30;14.50;99.90
16392;DHT22;8305;-33.882;151.134;2022-07-21T03:01:31;14.60;99.90
16392;DHT22;8305;-33.882;151.134;2022-07-21T03:04:17;14.80;99.90
16392;DHT22;8305;-33.882;151.134;2022-07-21T03:06:48;14.80;99.90
16392;DHT22;8305;-33.882;151.134;2022-07-21T03:09:20;14.90;99.90
16392;DHT22;8305;-33.882;151.134;2022-07-21T03:11:51;14.80;99.90
16392;DHT22;8305;-33.882;151.134;2022-07-21T03:14:22;14.70;99.90
16392;DHT22;8305;-33.882;151.134;2022-07-21T03:16:53;14.60;99.90
16392;DHT22;8305;-33.882;151.134;2022-07-21T03:19:25;14.50;99.90
16392;DHT22;8305;-33.882;151.134;2022-07-21T03:21:55;14.50;99.90
16392;DHT22;8305;-33.882;151.134;2022-07-21T03:24:28;14.50;99.90
16392;DHT22;8305;-33.882;151.134;2022-07-21T03:26:59;14.50;99.90
16392;DHT22;8305;-33.882;151.134;2022-07-21T03:29:30;14.40;99.90
16392;DHT22;8305;-33.882;151.134;2022-07-21T03:32:00;14.30;99.90
16392;DHT22;8305;-33.882;151.134;2022-07-21T03:34:31;14.20;99.90
16392;DHT22;8305;-33.882;151.134;2022-07-21T03:37:02;14.20;99.90
16392;DHT22;8305;-33.882;151.134;2022-07-21T03:39:34;14.20;99.90
16392;DHT22;8305;-33.882;151.134;2022-07-21T03:42:05;14.20;99.90
16392;DHT22;8305;-33.882;151.134;2022-07-21T03:44:36;14.30;99.90
16392;DHT22;8305;-33.882;151.134;2022-07-21T03:47:07;14.30;99.90
16392;DHT22;8305;-33.882;151.134;2022-07-21T03:49:38;14.50;99.90
16392;DHT22;8305;-33.882;151.134;2022-07-21T03:52:08;14.60;99.90
16392;DHT22;8305;-33.882;151.134;2022-07-21T03:54:41;14.70;99.90
16392;DHT22;8305;-33.882;151.134;2022-07-21T03:57:12;14.70;99.90
16392;DHT22;8305;-33.882;151.134;2022-07-21T03:59:42;14.70;99.90
16392;DHT22;8305;-33.882;151.134;2022-07-21T04:02:13;14.70;99.90
16392;DHT22;8305;-33.882;151.134;2022-07-21T04:04:44;14.70;99.90
16392;DHT22;8305;-33.882;151.134;2022-07-21T04:07:14;14.60;99.90
16392;DHT22;8305;-33.882;151.134;2022-07-21T04:09:47;14.40;99.90
16392;DHT22;8305;-33.882;151.134;2022-07-21T04:12:18;14.30;99.90
16392;DHT22;8305;-33.882;151.134;2022-07-21T04:14:49;14.20;99.90
16392;DHT22;8305;-33.882;151.134;2022-07-21T04:17:20;14.10;99.90
16392;DHT22;8305;-33.882;151.134;2022-07-21T04:19:51;14.10;99.90
16392;DHT22;8305;-33.882;151.134;2022-07-21T04:22:22;14.00;99.90
16392;DHT22;8305;-33.882;151.134;2022-07-21T04:24:54;13.90;99.90
16392;DHT22;8305;-33.882;151.134;2022-07-21T04:27:25;13.90;99.90
16392;DHT22;8305;-33.882;151.134;2022-07-21T04:29:57;13.90;99.90
16392;DHT22;8305;-33.882;151.134;2022-07-21T04:32:28;13.90;99.90
16392;DHT22;8305;-33.882;151.134;2022-07-21T04:34:58;13.90;99.90
16392;DHT22;8305;-33.882;151.134;2022-07-21T04:37:29;13.90;99.90
16392;DHT22;8305;-33.882;151.134;2022-07-21T04:40:02;13.90;99.90
16392;DHT22;8305;-33.882;151.134;2022-07-21T04:42:33;13.90;99.90
16392;DHT22;8305;-33.882;151.134;2022-07-21T04:45:05;14.10;99.90
16392;DHT22;8305;-33.882;151.134;2022-07-21T04:47:43;14.00;99.90
16392;DHT22;8305;-33.882;151.134;2022-07-21T04:50:14;14.10;99.90
16392;DHT22;8305;-33.882;151.134;2022-07-21T04:52:45;14.10;99.90
16392;DHT22;8305;-33.882;151.134;2022-07-21T04:55:18;14.10;99.90
16392;DHT22;8305;-33.882;151.134;2022-07-21T04:57:51;14.10;99.90
16392;DHT22;8305;-33.882;151.134;2022-07-21T05:00:23;14.10;99.90
16392;DHT22;8305;-33.882;151.134;2022-07-21T05:02:55;14.10;99.90
16392;DHT22;8305;-33.882;151.134;2022-07-21T05:05:26;14.10;99.90
16392;DHT22;8305;-33.882;151.134;2022-07-21T05:07:56;14.10;99.90
16392;DHT22;8305;-33.882;151.134;2022-07-21T05:10:29;14.10;99.90
16392;DHT22;8305;-33.882;151.134;2022-07-21T05:13:00;14.10;99.90
16392;DHT22;8305;-33.882;151.134;2022-07-21T05:15:30;14.10;99.90
16392;DHT22;8305;-33.882;151.134;2022-07-21T05:18:01;14.10;99.90
16392;DHT22;8305;-33.882;151.134;2022-07-21T05:20:32;14.10;99.90
16392;DHT22;8305;-33.882;151.134;2022-07-21T05:23:03;14.20;99.90
16392;DHT22;8305;-33.882;151.134;2022-07-21T05:25:35;14.30;99.90
16392;DHT22;8305;-33.882;151.134;2022-07-21T05:28:07;14.40;99.90
16392;DHT22;8305;-33.882;151.134;2022-07-21T05:30:37;14.50;99.90
16392;DHT22;8305;-33.882;151.134;2022-07-21T05:33:08;14.50;99.90
16392;DHT22;8305;-33.882;151.134;2022-07-21T05:35:40;14.50;99.90
16392;DHT22;8305;-33.882;151.134;2022-07-21T05:38:11;14.50;99.90
16392;DHT22;8305;-33.882;151.134;2022-07-21T05:40:44;14.60;99.90
16392;DHT22;8305;-33.882;151.134;2022-07-21T05:43:15;14.40;99.90
16392;DHT22;8305;-33.882;151.134;2022-07-21T05:45:46;14.50;99.90
16392;DHT22;8305;-33.882;151.134;2022-07-21T05:48:16;14.50;99.90
16392;DHT22;8305;-33.882;151.134;2022-07-21T05:50:47;14.50;99.90
16392;DHT22;8305;-33.882;151.134;2022-07-21T05:53:18;14.50;99.90
16392;DHT22;8305;-33.882;151.134;2022-07-21T05:55:51;14.50;99.90
16392;DHT22;8305;-33.882;151.134;2022-07-21T05:58:22;14.60;99.90
16392;DHT22;8305;-33.882;151.134;2022-07-21T06:00:54;14.60;99.90
16392;DHT22;8305;-33.882;151.134;2022-07-21T06:03:43;14.60;99.90
16392;DHT22;8305;-33.882;151.134;2022-07-21T06:06:15;14.70;99.90
16392;DHT22;8305;-33.882;151.134;2022-07-21T06:08:47;14.60;99.90
16392;DHT22;8305;-33.882;151.134;2022-07-21T06:11:21;14.70;99.90
16392;DHT22;8305;-33.882;151.134;2022-07-21T06:13:52;14.70;99.90
16392;DHT22;8305;-33.882;151.134;2022-07-21T06:16:23;14.70;99.90
16392;DHT22;8305;-33.882;151.134;2022-07-21T06:18:54;14.50;99.90
16392;DHT22;8305;-33.882;151.134;2022-07-21T06:21:25;14.40;99.90
16392;DHT22;8305;-33.882;151.134;2022-07-21T06:23:55;14.20;99.90
16392;DHT22;8305;-33.882;151.134;2022-07-21T06:26:28;14.00;99.90
16392;DHT22;8305;-33.882;151.134;2022-07-21T06:28:59;13.90;99.90
16392;DHT22;8305;-33.882;151.134;2022-07-21T06:31:34;13.90;99.90
16392;DHT22;8305;-33.882;151.134;2022-07-21T06:34:04;13.80;99.90
16392;DHT22;8305;-33.882;151.134;2022-07-21T06:36:38;13.80;99.90
16392;DHT22;8305;-33.882;151.134;2022-07-21T06:39:10;13.70;99.90
16392;DHT22;8305;-33.882;151.134;2022-07-21T06:41:44;13.60;99.90
16392;DHT22;8305;-33.882;151.134;2022-07-21T06:44:15;13.50;99.90
16392;DHT22;8305;-33.882;151.134;2022-07-21T06:46:46;13.60;99.90
16392;DHT22;8305;-33.882;151.134;2022-07-21T06:49:16;13.60;99.90
16392;DHT22;8305;-33.882;151.134;2022-07-21T06:51:47;13.50;99.90
16392;DHT22;8305;-33.882;151.134;2022-07-21T06:54:18;13.50;99.90
16392;DHT22;8305;-33.882;151.134;2022-07-21T06:56:51;13.50;99.90
16392;DHT22;8305;-33.882;151.134;2022-07-21T06:59:21;13.50;99.90
16392;DHT22;8305;-33.882;151.134;2022-07-21T07:01:52;13.50;99.90
16392;DHT22;8305;-33.882;151.134;2022-07-21T07:04:23;13.50;99.90
16392;DHT22;8305;-33.882;151.134;2022-07-21T07:06:53;13.40;99.90
16392;DHT22;8305;-33.882;151.134;2022-07-21T07:09:24;13.50;99.90
16392;DHT22;8305;-33.882;151.134;2022-07-21T07:11:57;13.50;99.90
16392;DHT22;8305;-33.882;151.134;2022-07-21T07:14:31;13.50;99.90
16392;DHT22;8305;-33.882;151.134;2022-07-21T07:17:02;13.50;99.90
16392;DHT22;8305;-33.882;151.134;2022-07-21T07:19:33;13.50;99.90
16392;DHT22;8305;-33.882;151.134;2022-07-21T07:22:04;13.50;99.90
16392;DHT22;8305;-33.882;151.134;2022-07-21T07:24:35;13.60;99.90
16392;DHT22;8305;-33.882;151.134;2022-07-21T07:27:08;13.70;99.90
16392;DHT22;8305;-33.882;151.134;2022-07-21T07:29:38;13.70;99.90
16392;DHT22;8305;-33.882;151.134;2022-07-21T07:32:09;13.80;99.90
16392;DHT22;8305;-33.882;151.134;2022-07-21T07:34:40;13.90;99.90
16392;DHT22;8305;-33.882;151.134;2022-07-21T07:37:10;13.90;99.90
16392;DHT22;8305;-33.882;151.134;2022-07-21T07:39:41;13.90;99.90
16392;DHT22;8305;-33.882;151.134;2022-07-21T07:42:14;13.90;99.90
16392;DHT22;8305;-33.882;151.134;2022-07-21T07:44:44;13.90;99.90
16392;DHT22;8305;-33.882;151.134;2022-07-21T07:47:15;13.90;99.90
16392;DHT22;8305;-33.882;151.134;2022-07-21T07:49:46;13.90;99.90
16392;DHT22;8305;-33.882;151.134;2022-07-21T07:52:18;14.00;99.90
16392;DHT22;8305;-33.882;151.134;2022-07-21T07:54:49;14.00;99.90
16392;DHT22;8305;-33.882;151.134;2022-07-21T07:57:22;14.10;99.90
16392;DHT22;8305;-33.882;151.134;2022-07-21T07:59:52;14.10;99.90
16392;DHT22;8305;-33.882;151.134;2022-07-21T08:02:23;14.10;99.90
16392;DHT22;8305;-33.882;151.134;2022-07-21T08:04:54;14.10;99.90
16392;DHT22;8305;-33.882;151.134;2022-07-21T08:07:25;14.20;99.90
16392;DHT22;8305;-33.882;151.134;2022-07-21T08:09:56;14.30;99.90
16392;DHT22;8305;-33.882;151.134;2022-07-21T08:12:28;14.30;99.90
16392;DHT22;8305;-33.882;151.134;2022-07-21T08:14:59;14.30;99.90
16392;DHT22;8305;-33.882;151.134;2022-07-21T08:17:31;14.30;99.90
16392;DHT22;8305;-33.882;151.134;2022-07-21T08:20:01;14.30;99.90
16392;DHT22;8305;-33.882;151.134;2022-07-21T08:22:33;14.40;99.90
16392;DHT22;8305;-33.882;151.134;2022-07-21T08:25:06;14.40;99.90
16392;DHT22;8305;-33.882;151.134;2022-07-21T08:27:38;14.30;99.90
16392;DHT22;8305;-33.882;151.134;2022-07-21T08:30:10;14.50;99.90
16392;DHT22;8305;-33.882;151.134;2022-07-21T08:32:41;14.50;99.90
16392;DHT22;8305;-33.882;151.134;2022-07-21T08:35:12;14.50;99.90
16392;DHT22;8305;-33.882;151.134;2022-07-21T08:37:51;14.50;99.90
16392;DHT22;8305;-33.882;151.134;2022-07-21T08:40:24;14.50;99.90
16392;DHT22;8305;-33.882;151.134;2022-07-21T08:42:56;14.50;99.90
16392;DHT22;8305;-33.882;151.134;2022-07-21T08:45:27;14.50;99.90
16392;DHT22;8305;-33.882;151.134;2022-07-21T08:47:58;14.50;99.90
16392;DHT22;8305;-33.882;151.134;2022-07-21T08:50:31;14.50;99.90
16392;DHT22;8305;-33.882;151.134;2022-07-21T08:53:02;14.50;99.90
16392;DHT22;8305;-33.882;151.134;2022-07-21T08:55:34;14.60;99.90
16392;DHT22;8305;-33.882;151.134;2022-07-21T08:58:08;14.60;99.90
16392;DHT22;8305;-33.882;151.134;2022-07-21T09:00:40;14.60;99.90
16392;DHT22;8305;-33.882;151.134;2022-07-21T09:03:13;14.70;99.90
16392;DHT22;8305;-33.882;151.134;2022-07-21T09:05:59;14.60;99.90
16392;DHT22;8305;-33.882;151.134;2022-07-21T09:08:31;14.60;99.90
16392;DHT22;8305;-33.882;151.134;2022-07-21T09:11:20;14.60;99.90
16392;DHT22;8305;-33.882;151.134;2022-07-21T09:14:06;14.60;99.90
16392;DHT22;8305;-33.882;151.134;2022-07-21T09:16:39;14.60;99.90
16392;DHT22;8305;-33.882;151.134;2022-07-21T09:19:18;14.60;99.90
16392;DHT22;8305;-33.882;151.134;2022-07-21T09:21:50;14.50;99.90
16392;DHT22;8305;-33.882;151.134;2022-07-21T09:24:23;14.60;99.90
16392;DHT22;8305;-33.882;151.134;2022-07-21T09:27:02;14.50;99.90
16392;DHT22;8305;-33.882;151.134;2022-07-21T09:29:38;14.60;99.90
16392;DHT22;8305;-33.882;151.134;2022-07-21T09:32:21;14.50;99.90
16392;DHT22;8305;-33.882;151.134;2022-07-21T09:34:54;14.50;99.90
16392;DHT22;8305;-33.882;151.134;2022-07-21T09:37:25;14.60;99.90
16392;DHT22;8305;-33.882;151.134;2022-07-21T09:39:57;14.60;99.90
16392;DHT22;8305;-33.882;151.134;2022-07-21T09:42:32;14.60;99.90
16392;DHT22;8305;-33.882;151.134;2022-07-21T09:45:06;14.70;99.90
16392;DHT22;8305;-33.882;151.134;2022-07-21T09:47:37;14.70;99.90
16392;DHT22;8305;-33.882;151.134;2022-07-21T09:50:09;14.70;99.90
16392;DHT22;8305;-33.882;151.134;2022-07-21T09:52:42;14.70;99.90
16392;DHT22;8305;-33.882;151.134;2022-07-21T09:55:14;14.80;99.90
16392;DHT22;8305;-33.882;151.134;2022-07-21T09:57:45;14.70;99.90
16392;DHT22;8305;-33.882;151.134;2022-07-21T10:00:19;14.70;99.90
16392;DHT22;8305;-33.882;151.134;2022-07-21T10:02:50;14.70;99.90
16392;DHT22;8305;-33.882;151.134;2022-07-21T10:05:21;14.70;99.90
16392;DHT22;8305;-33.882;151.134;2022-07-21T10:07:52;14.70;99.90
16392;DHT22;8305;-33.882;151.134;2022-07-21T10:10:23;14.60;99.90
16392;DHT22;8305;-33.882;151.134;2022-07-21T10:12:54;14.60;99.90
16392;DHT22;8305;-33.882;151.134;2022-07-21T10:15:27;14.50;99.90
16392;DHT22;8305;-33.882;151.134;2022-07-21T10:18:00;14.50;99.90
16392;DHT22;8305;-33.882;151.134;2022-07-21T10:20:34;14.60;99.90
16392;DHT22;8305;-33.882;151.134;2022-07-21T10:23:14;14.70;99.90
16392;DHT22;8305;-33.882;151.134;2022-07-21T10:25:45;14.70;99.90
16392;DHT22;8305;-33.882;151.134;2022-07-21T10:28:18;14.70;99.90
16392;DHT22;8305;-33.882;151.134;2022-07-21T10:30:53;14.70;99.90
16392;DHT22;8305;-33.882;151.134;2022-07-21T10:33:55;14.70;99.90
16392;DHT22;8305;-33.882;151.134;2022-07-21T10:36:46;14.70;99.90
16392;DHT22;8305;-33.882;151.134;2022-07-21T10:39:24;14.70;99.90
16392;DHT22;8305;-33.882;151.134;2022-07-21T10:41:57;14.70;99.90
16392;DHT22;8305;-33.882;151.134;2022-07-21T10:44:41;14.70;99.90
16392;DHT22;8305;-33.882;151.134;2022-07-21T10:47:15;14.70;99.90
16392;DHT22;8305;-33.882;151.134;2022-07-21T10:49:52;14.70;99.90
16392;DHT22;8305;-33.882;151.134;2022-07-21T10:52:57;14.80;99.90
16392;DHT22;8305;-33.882;151.134;2022-07-21T10:55:29;14.90;99.90
16392;DHT22;8305;-33.882;151.134;2022-07-21T10:58:14;14.90;99.90
16392;DHT22;8305;-33.882;151.134;2022-07-21T11:00:47;14.90;99.90
16392;DHT22;8305;-33.882;151.134;2022-07-21T11:03:22;14.90;99.90
16392;DHT22;8305;-33.882;151.134;2022-07-21T11:06:21;14.90;99.90
16392;DHT22;8305;-33.882;151.134;2022-07-21T11:09:07;14.80;99.90
16392;DHT22;8305;-33.882;151.134;2022-07-21T11:11:39;14.80;99.90
16392;DHT22;8305;-33.882;151.134;2022-07-21T11:14:10;14.80;99.90
16392;DHT22;8305;-33.882;151.134;2022-07-21T11:17:08;14.70;99.90
16392;DHT22;8305;-33.882;151.134;2022-07-21T11:19:45;14.80;99.90
16392;DHT22;8305;-33.882;151.134;2022-07-21T11:22:19;14.90;99.90
16392;DHT22;8305;-33.882;151.134;2022-07-21T11:24:51;14.90;99.90
16392;DHT22;8305;-33.882;151.134;2022-07-21T11:27:24;14.90;99.90
16392;DHT22;8305;-33.882;151.134;2022-07-21T11:29:57;14.90;99.90
16392;DHT22;8305;-33.882;151.134;2022-07-21T11:32:29;14.90;99.90
16392;DHT22;8305;-33.882;151.134;2022-07-21T11:35:03;14.90;99.90
16392;DHT22;8305;-33.882;151.134;2022-07-21T11:37:35;14.60;99.90
16392;DHT22;8305;-33.882;151.134;2022-07-21T11:40:08;14.30;99.90
16392;DHT22;8305;-33.882;151.134;2022-07-21T11:42:39;14.10;99.90
16392;DHT22;8305;-33.882;151.134;2022-07-21T11:45:11;13.90;99.90
16392;DHT22;8305;-33.882;151.134;2022-07-21T11:47:42;13.80;99.90
16392;DHT22;8305;-33.882;151.134;2022-07-21T11:50:17;13.70;99.90
16392;DHT22;8305;-33.882;151.134;2022-07-21T11:52:47;13.70;99.90
16392;DHT22;8305;-33.882;151.134;2022-07-21T11:55:20;13.70;99.90
16392;DHT22;8305;-33.882;151.134;2022-07-21T11:57:50;13.70;99.90
16392;DHT22;8305;-33.882;151.134;2022-07-21T12:00:24;13.60;99.90
16392;DHT22;8305;-33.882;151.134;2022-07-21T12:03:05;13.50;99.90
16392;DHT22;8305;-33.882;151.134;2022-07-21T12:05:38;13.50;99.90
16392;DHT22;8305;-33.882;151.134;2022-07-21T12:08:09;13.50;99.90
16392;DHT22;8305;-33.882;151.134;2022-07-21T12:10:40;13.50;99.90
16392;DHT22;8305;-33.882;151.134;2022-07-21T12:13:11;13.50;99.90
16392;DHT22;8305;-33.882;151.134;2022-07-21T12:15:41;13.40;99.90
16392;DHT22;8305;-33.882;151.134;2022-07-21T12:18:19;13.40;99.90
16392;DHT22;8305;-33.882;151.134;2022-07-21T12:21:02;13.40;99.90
16392;DHT22;8305;-33.882;151.134;2022-07-21T12:23:33;13.30;99.90
16392;DHT22;8305;-33.882;151.134;2022-07-21T12:26:05;13.30;99.90
16392;DHT22;8305;-33.882;151.134;2022-07-21T12:28:45;13.20;99.90
16392;DHT22;8305;-33.882;151.134;2022-07-21T12:31:17;13.20;99.90
16392;DHT22;8305;-33.882;151.134;2022-07-21T12:33:50;13.20;99.90
16392;DHT22;8305;-33.882;151.134;2022-07-21T12:36:23;13.10;99.90
16392;DHT22;8305;-33.882;151.134;2022-07-21T12:38:55;13.10;99.90
16392;DHT22;8305;-33.882;151.134;2022-07-21T12:41:26;13.10;99.90
16392;DHT22;8305;-33.882;151.134;2022-07-21T12:43:58;13.00;99.90
16392;DHT22;8305;-33.882;151.134;2022-07-21T12:46:31;13.10;99.90
16392;DHT22;8305;-33.882;151.134;2022-07-21T12:49:05;13.00;99.90
16392;DHT22;8305;-33.882;151.134;2022-07-21T12:51:39;13.00;99.90
16392;DHT22;8305;-33.882;151.134;2022-07-21T12:54:11;13.00;99.90
16392;DHT22;8305;-33.882;151.134;2022-07-21T12:56:41;13.00;99.90
16392;DHT22;8305;-33.882;151.134;2022-07-21T12:59:12;13.10;99.90
16392;DHT22;8305;-33.882;151.134;2022-07-21T13:01:43;13.10;99.90
16392;DHT22;8305;-33.882;151.134;2022-07-21T13:04:14;13.20;99.90
16392;DHT22;8305;-33.882;151.134;2022-07-21T13:06:47;13.30;99.90
16392;DHT22;8305;-33.882;151.134;2022-07-21T13:09:18;13.40;99.90
16392;DHT22;8305;-33.882;151.134;2022-07-21T13:11:48;13.50;99.90
16392;DHT22;8305;-33.882;151.134;2022-07-21T13:14:19;13.40;99.90
16392;DHT22;8305;-33.882;151.134;2022-07-21T13:16:50;13.40;99.90
16392;DHT22;8305;-33.882;151.134;2022-07-21T13:19:20;13.30;99.90
16392;DHT22;8305;-33.882;151.134;2022-07-21T13:21:53;13.30;99.90
16392;DHT22;8305;-33.882;151.134;2022-07-21T13:24:24;13.20;99.90
16392;DHT22;8305;-33.882;151.134;2022-07-21T13:26:58;13.20;99.90
16392;DHT22;8305;-33.882;151.134;2022-07-21T13:29:28;13.20;99.90
16392;DHT22;8305;-33.882;151.134;2022-07-21T13:31:59;13.20;99.90
16392;DHT22;8305;-33.882;151.134;2022-07-21T13:34:30;13.20;99.90
16392;DHT22;8305;-33.882;151.134;2022-07-21T13:37:02;13.20;99.90
16392;DHT22;8305;-33.882;151.134;2022-07-21T13:39:33;13.10;99.90
16392;DHT22;8305;-33.882;151.134;2022-07-21T13:42:05;13.10;99.90
16392;DHT22;8305;-33.882;151.134;2022-07-21T13:44:36;13.10;99.90
16392;DHT22;8305;-33.882;151.134;2022-07-21T13:47:07;13.00;99.90
16392;DHT22;8305;-33.882;151.134;2022-07-21T13:49:38;13.00;99.90
16392;DHT22;8305;-33.882;151.134;2022-07-21T13:52:10;13.00;99.90
16392;DHT22;8305;-33.882;151.134;2022-07-21T13:54:42;13.00;99.90
16392;DHT22;8305;-33.882;151.134;2022-07-21T13:57:13;13.00;99.90
16392;DHT22;8305;-33.882;151.134;2022-07-21T13:59:43;12.90;99.90
16392;DHT22;8305;-33.882;151.134;2022-07-21T14:02:14;12.90;99.90
16392;DHT22;8305;-33.882;151.134;2022-07-21T14:04:45;12.80;99.90
16392;DHT22;8305;-33.882;151.134;2022-07-21T14:07:17;12.90;99.90
16392;DHT22;8305;-33.882;151.134;2022-07-21T14:09:48;12.80;99.90
16392;DHT22;8305;-33.882;151.134;2022-07-21T14:12:19;12.80;99.90
16392;DHT22;8305;-33.882;151.134;2022-07-21T14:14:49;12.80;99.90
16392;DHT22;8305;-33.882;151.134;2022-07-21T14:17:20;12.70;99.90
16392;DHT22;8305;-33.882;151.134;2022-07-21T14:19:51;12.70;99.90
16392;DHT22;8305;-33.882;151.134;2022-07-21T14:22:24;12.80;99.90
16392;DHT22;8305;-33.882;151.134;2022-07-21T14:24:54;12.70;99.90
16392;DHT22;8305;-33.882;151.134;2022-07-21T14:27:41;12.70;99.90
16392;DHT22;8305;-33.882;151.134;2022-07-21T14:30:12;12.80;99.90
16392;DHT22;8305;-33.882;151.134;2022-07-21T14:32:42;12.70;99.90
16392;DHT22;8305;-33.882;151.134;2022-07-21T14:35:13;12.70;99.90
16392;DHT22;8305;-33.882;151.134;2022-07-21T14:37:48;12.70;99.90
16392;DHT22;8305;-33.882;151.134;2022-07-21T14:40:20;12.70;99.90
16392;DHT22;8305;-33.882;151.134;2022-07-21T14:42:51;12.70;99.90
16392;DHT22;8305;-33.882;151.134;2022-07-21T14:45:23;12.60;99.90
16392;DHT22;8305;-33.882;151.134;2022-07-21T14:47:55;12.60;99.90
16392;DHT22;8305;-33.882;151.134;2022-07-21T14:50:27;12.60;99.90
16392;DHT22;8305;-33.882;151.134;2022-07-21T14:52:59;12.50;99.90
16392;DHT22;8305;-33.882;151.134;2022-07-21T14:55:30;12.50;99.90
16392;DHT22;8305;-33.882;151.134;2022-07-21T14:58:01;12.50;99.90
16392;DHT22;8305;-33.882;151.134;2022-07-21T15:00:32;12.60;99.90
16392;DHT22;8305;-33.882;151.134;2022-07-21T15:03:03;12.60;99.90
16392;DHT22;8305;-33.882;151.134;2022-07-21T15:05:33;12.60;99.90
16392;DHT22;8305;-33.882;151.134;2022-07-21T15:08:06;12.60;99.90
16392;DHT22;8305;-33.882;151.134;2022-07-21T15:10:39;12.60;99.90
16392;DHT22;8305;-33.882;151.134;2022-07-21T15:13:10;12.50;99.90
16392;DHT22;8305;-33.882;151.134;2022-07-21T15:15:41;12.50;99.90
16392;DHT22;8305;-33.882;151.134;2022-07-21T15:18:12;12.50;99.90
16392;DHT22;8305;-33.882;151.134;2022-07-21T15:20:44;12.50;99.90
16392;DHT22;8305;-33.882;151.134;2022-07-21T15:23:16;12.50;99.90
16392;DHT22;8305;-33.882;151.134;2022-07-21T15:25:47;12.60;99.90
16392;DHT22;8305;-33.882;151.134;2022-07-21T15:28:18;12.50;99.90
16392;DHT22;8305;-33.882;151.134;2022-07-21T15:30:48;12.50;99.90
16392;DHT22;8305;-33.882;151.134;2022-07-21T15:33:19;12.50;99.90
16392;DHT22;8305;-33.882;151.134;2022-07-21T15:35:50;12.50;99.90